EDT,Max TemperatureF,Mean TemperatureF,Min TemperatureF,Max Dew PointF,MeanDew PointF,Min DewpointF,Max Humidity, Mean Humidity, Min Humidity, Max Sea Level PressureIn, Mean Sea Level PressureIn, Min Sea Level PressureIn, Max VisibilityMiles, Mean VisibilityMiles, Min VisibilityMiles, Max Wind SpeedMPH, Mean Wind SpeedMPH, Max Gust SpeedMPH,PrecipitationIn, CloudCover, Events, WindDirDegrees
2013-3-1,38,34,30,30,28,27,90,78,64,29.67,29.61,29.53,10,10,7,10,6,,0.00,7,Snow,324
2013-3-2,43,36,30,32,28,26,100,74,50,29.66,29.64,29.59,10,8,2,13,6,,0.01,8,Rain-Snow,302
2013-3-3,39,34,30,34,30,24,100,88,64,29.63,29.60,29.55,10,5,2,12,6,,0.09,8,Rain-Snow,273
2013-3-4,37,33,29,25,22,19,69,63,56,29.72,29.59,29.55,10,10,6,22,13,30,0.00,7,Rain-Snow,293
2013-3-5,43,36,29,32,27,20,82,67,53,30.08,29.94,29.74,10,10,10,13,9,21,0.00,6,,344
2013-3-6,37,34,32,36,31,27,93,87,67,30.17,30.14,30.08,10,5,1,22,15,33,0.19,8,Rain-Snow,45
2013-3-7,34,32,30,30,27,23,93,81,65,30.14,30.08,30.03,10,5,1,25,15,36,0.11,8,Snow,16
2013-3-8,44,36,28,28,23,16,93,68,33,30.16,30.04,29.98,10,5,0,17,14,28,0.34,8,Fog-Rain-Snow,7
2013-3-9,40,34,27,28,23,17,94,62,40,30.37,30.26,30.17,10,10,10,16,9,23,0.00,1,,41
2013-3-10,37,30,23,30,27,22,95,81,66,30.42,30.37,30.31,10,10,10,9,4,,0.00,5,,181
2013-3-11,50,41,32,38,33,28,93,78,45,30.33,30.22,30.15,10,10,8,12,6,,0.00,7,,171
2013-3-12,48,44,39,48,44,39,100,96,87,30.14,29.94,29.73,10,5,0,22,10,26,0.29,8,Fog-Rain,137
2013-3-13,52,42,32,49,33,19,100,71,36,29.77,29.72,29.68,10,9,1,15,8,22,0.00,4,,269
2013-3-14,39,30,20,24,15,1,79,54,38,29.79,29.73,29.66,10,10,10,24,9,33,0.00,5,,269
2013-3-15,40,28,17,30,12,0,93,53,24,29.83,29.71,29.62,10,9,1,21,13,32,0.01,5,Snow,266
2013-3-16,36,30,25,28,15,6,93,56,29,29.89,29.77,29.64,10,9,0,18,11,,0.04,5,Snow,299
2013-3-17,36,28,21,12,4,-4,62,38,22,30.32,30.05,29.89,10,10,10,25,8,32,0.00,3,,300
2013-3-18,37,25,14,22,7,-4,64,45,24,30.46,30.36,30.27,10,10,10,12,5,,0.00,5,Snow,211
2013-3-19,33,29,25,32,29,21,100,93,64,30.26,29.92,29.66,4,1,0,22,14,37,1.35,8,Fog-Snow,72
2013-3-20,36,30,23,23,20,17,93,69,49,29.78,29.70,29.68,10,9,2,17,12,25,0.02,5,Snow,255
2013-3-21,37,29,22,26,19,13,88,64,39,29.78,29.70,29.61,10,10,7,10,6,,0.00,5,,208
2013-3-22,39,32,27,25,17,13,87,55,35,29.69,29.64,29.59,10,10,10,13,6,,0.00,6,,277
2013-3-23,40,33,26,20,18,15,67,52,36,29.73,29.66,29.59,10,10,10,28,13,41,0.00,4,,277
2013-3-24,45,38,31,28,23,20,78,57,37,29.79,29.76,29.72,10,10,10,16,10,25,0.00,2,,303
2013-3-25,39,34,28,31,27,20,83,71,63,29.77,29.66,29.56,10,10,10,15,8,,0.00,6,,29
2013-3-26,50,40,30,25,20,16,74,46,25,29.76,29.65,29.55,10,10,10,14,10,20,0.00,2,,332
2013-3-27,54,42,31,35,25,20,88,55,29,29.87,29.78,29.72,10,9,7,17,9,23,0.00,4,Rain,296
2013-3-28,49,42,34,36,32,27,94,71,46,30.00,29.93,29.87,10,10,7,13,8,20,0.01,6,Rain,312
2013-3-29,57,46,36,34,30,26,78,57,31,30.03,30.00,29.96,10,10,10,13,7,18,0.00,6,,279
2013-3-30,56,46,35,30,21,11,75,42,18,30.09,30.04,29.99,10,10,10,13,6,,0.00,3,,283
2013-3-31,54,41,28,37,26,15,84,54,25,30.12,30.01,29.81,10,10,8,16,6,23,0.00,5,Rain,151